METAR Data
IDs: Format: Raw Decoded Include TAF

Data at: 2204 UTC 01 Dec 2021

LIRK 012140Z AUTO 30013G26KT ///// 00/M00 Q1008